Urb Los Prados Norte, Puerto Rico
Current Conditions -  °F | °C
As of 10:56 AM on Saturday 25 Oct 2014 (Local Time) from TJSJ Reporting Station
Scattered Clouds Scattered Clouds  
Wind Chill: 87°   Ceiling: Unl
Heat Index: 97°   Visibility: 10mi
Dew Point: 76°   Wind: 5mph
Humidity: 69%   Direction: 260°W
Pressure: 29.93"   Gusts: NA
Location:  18.4598°N, 66.2592°W
Report Text: TJSJ 251456Z 26004KT 10SM FEW028 SCT036 SCT110 31/24 A2993 RMK AO2 SLP135 T03060244 50000
Loading
Personal Weather Stations






























Interactive Weather Map
Tropical Storm Tracking
New forecast layout! Learn more

10-Day Weather Forecast

Advertisements
Track Severe Weather on mobile